createdAt,value
2018-04-19T00:00:34.888Z,995
2018-04-19T00:01:36.267Z,995
2018-04-19T00:02:37.658Z,995.1
2018-04-19T00:03:39.427Z,995.1
2018-04-19T00:04:40.768Z,995.1
2018-04-19T00:05:42.148Z,995.1
2018-04-19T00:06:43.573Z,995
2018-04-19T00:07:44.950Z,995.1
2018-04-19T00:08:46.651Z,995
2018-04-19T00:09:48.348Z,995
2018-04-19T00:10:49.744Z,995
2018-04-19T00:11:51.144Z,995
2018-04-19T00:12:52.515Z,995
2018-04-19T00:13:53.967Z,995
2018-04-19T00:14:55.362Z,995
2018-04-19T00:15:56.712Z,995
2018-04-19T00:17:03.717Z,994.9
2018-04-19T00:18:05.112Z,995
2018-04-19T00:19:06.556Z,995
2018-04-19T00:20:08.051Z,995
2018-04-19T00:21:09.437Z,995
2018-04-19T00:22:10.783Z,995
2018-04-19T00:23:12.143Z,995
2018-04-19T00:24:14.012Z,995
2018-04-19T00:25:15.414Z,995
2018-04-19T00:26:17.505Z,995
2018-04-19T00:27:18.924Z,994.9
2018-04-19T00:28:20.695Z,994.8
2018-04-19T00:29:22.118Z,994.9
2018-04-19T00:30:23.798Z,995
2018-04-19T00:31:25.217Z,994.8
2018-04-19T00:32:27.211Z,994.9
2018-04-19T00:33:28.790Z,994.9
2018-04-19T00:34:31.904Z,994.9
2018-04-19T00:35:33.258Z,994.9
2018-04-19T00:36:35.042Z,994.9
2018-04-19T00:37:37.597Z,994.9
2018-04-19T00:38:38.949Z,994.9
2018-04-19T00:39:40.343Z,995
2018-04-19T00:40:41.709Z,994.9
2018-04-19T00:41:43.065Z,994.9
2018-04-19T00:42:44.408Z,994.9
2018-04-19T00:43:45.778Z,994.9
2018-04-19T00:44:47.223Z,994.9
2018-04-19T00:45:48.735Z,994.5
2018-04-19T00:46:52.518Z,994.8
2018-04-19T00:47:53.896Z,994.9
2018-04-19T00:48:55.285Z,994.7
2018-04-19T00:49:56.701Z,994.9
2018-04-19T00:50:58.160Z,994.7
2018-04-19T00:51:59.553Z,994.9
2018-04-19T00:53:03.189Z,994.9
2018-04-19T00:54:04.554Z,994.9
2018-04-19T00:55:05.943Z,994.8
2018-04-19T00:56:07.333Z,994.9
2018-04-19T00:57:08.702Z,994.9
2018-04-19T00:58:10.053Z,994.8
2018-04-19T00:59:11.407Z,994.9
2018-04-19T01:00:12.822Z,994.8
2018-04-19T01:01:14.200Z,994.8
2018-04-19T01:02:15.564Z,994.8
2018-04-19T01:03:16.912Z,994.8
2018-04-19T01:04:18.359Z,994.8
2018-04-19T01:05:20.087Z,994.8
2018-04-19T01:06:21.466Z,994.8
2018-04-19T01:07:22.844Z,994.8
2018-04-19T01:08:24.236Z,994.8
2018-04-19T01:09:25.623Z,994.8
2018-04-19T01:10:27.005Z,994.8
2018-04-19T01:11:28.488Z,994.8
2018-04-19T01:12:29.947Z,994.8
2018-04-19T01:13:33.396Z,994.8
2018-04-19T01:14:34.799Z,994.8
2018-04-19T01:15:36.202Z,994.8
2018-04-19T01:16:37.548Z,994.8
2018-04-19T01:17:38.941Z,994.8
2018-04-19T01:18:40.281Z,994.8
2018-04-19T01:19:41.657Z,994.8
2018-04-19T01:20:43.089Z,994.8
2018-04-19T01:21:44.430Z,994.8
2018-04-19T01:22:45.795Z,994.8
2018-04-19T01:23:47.284Z,994.8
2018-04-19T01:24:48.648Z,994.8
2018-04-19T01:25:50.260Z,994.8
2018-04-19T01:26:51.616Z,994.8
2018-04-19T01:27:53.415Z,994.8
2018-04-19T01:28:54.825Z,994.7
2018-04-19T01:29:56.218Z,994.7
2018-04-19T01:30:57.621Z,994.8
2018-04-19T01:31:59.029Z,994.8
2018-04-19T01:33:00.574Z,994.8
2018-04-19T01:34:01.991Z,994.7
2018-04-19T01:35:06.512Z,994.8
2018-04-19T01:36:08.285Z,994.8
2018-04-19T01:37:09.931Z,994.8
2018-04-19T01:38:11.281Z,994.8
2018-04-19T01:39:13.092Z,994.7
2018-04-19T01:40:14.479Z,994.7
2018-04-19T01:41:16.470Z,994.7
2018-04-19T01:42:17.923Z,994.8
2018-04-19T01:43:19.676Z,994.7
2018-04-19T01:44:21.111Z,994.8
2018-04-19T01:45:22.748Z,994.7
2018-04-19T01:46:24.221Z,994.7
2018-04-19T01:47:25.932Z,994.6
2018-04-19T01:48:27.346Z,994.8
2018-04-19T01:49:28.719Z,994.8
2018-04-19T01:50:30.152Z,994.8
2018-04-19T01:51:31.569Z,994.8
2018-04-19T01:52:32.966Z,994.8
2018-04-19T01:53:34.331Z,994.7
2018-04-19T01:54:35.696Z,994.7
2018-04-19T01:55:37.053Z,994.7
2018-04-19T01:56:38.484Z,994.7
2018-04-19T01:57:39.846Z,994.7
2018-04-19T01:58:41.197Z,994.7
2018-04-19T01:59:42.580Z,994.7
2018-04-19T02:00:43.956Z,994.7
2018-04-19T02:01:45.331Z,994.7
2018-04-19T02:02:46.700Z,994.7
2018-04-19T02:03:48.067Z,994.7
2018-04-19T02:04:49.615Z,994.7
2018-04-19T02:05:50.997Z,994.7
2018-04-19T02:06:52.690Z,994.6
2018-04-19T02:07:54.084Z,994.7
2018-04-19T02:08:55.462Z,994.6
2018-04-19T02:09:56.940Z,994.7
2018-04-19T02:10:58.286Z,994.7
2018-04-19T02:11:59.923Z,994.7
2018-04-19T02:13:01.293Z,994.7
2018-04-19T02:14:02.649Z,994.7
2018-04-19T02:15:04.026Z,994.7
2018-04-19T02:16:05.379Z,994.7
2018-04-19T02:17:06.813Z,994.7
2018-04-19T02:18:08.188Z,994.7
2018-04-19T02:19:09.575Z,994.6
2018-04-19T02:20:10.924Z,994.7
2018-04-19T02:21:12.277Z,994.6
2018-04-19T02:22:16.720Z,994.6
2018-04-19T02:23:18.064Z,994.6
2018-04-19T02:24:19.488Z,994.6
2018-04-19T02:25:20.960Z,994.6
2018-04-19T02:26:22.325Z,994.6
2018-04-19T02:27:23.720Z,994.6
2018-04-19T02:28:25.068Z,994.6
2018-04-19T02:29:26.482Z,994.6
2018-04-19T02:30:29.195Z,994.5
2018-04-19T02:31:30.559Z,994.5
2018-04-19T02:32:31.929Z,994.5
2018-04-19T02:33:33.274Z,994.5
2018-04-19T02:34:34.668Z,994.6
2018-04-19T02:35:36.070Z,994.5
2018-04-19T02:36:37.925Z,994.4
2018-04-19T02:37:39.778Z,994.5
2018-04-19T02:38:41.204Z,994.5
2018-04-19T02:39:42.563Z,994.4
2018-04-19T02:40:43.922Z,994.4
2018-04-19T02:41:45.369Z,994.4
2018-04-19T02:42:46.765Z,994.4
2018-04-19T02:43:48.416Z,994.4
2018-04-19T02:44:49.838Z,994.3
2018-04-19T02:45:51.606Z,994.4
2018-04-19T02:46:52.988Z,994.3
2018-04-19T02:47:54.818Z,994.4
2018-04-19T02:48:56.157Z,994.3
2018-04-19T02:49:58.001Z,994.3
2018-04-19T02:50:59.463Z,994.3
2018-04-19T02:52:03.909Z,994.3
2018-04-19T02:53:05.329Z,994.4
2018-04-19T02:54:07.433Z,994.3
2018-04-19T02:55:08.843Z,994.3
2018-04-19T02:56:12.829Z,994.3
2018-04-19T02:57:14.256Z,994.3
2018-04-19T02:58:16.165Z,994.2
2018-04-19T02:59:17.512Z,994
2018-04-19T03:00:18.875Z,994.2
2018-04-19T03:01:20.204Z,994.2
2018-04-19T03:02:21.549Z,994.3
2018-04-19T03:03:22.939Z,994.2
2018-04-19T03:04:24.291Z,994.2
2018-04-19T03:05:25.625Z,994.2
2018-04-19T03:06:26.969Z,994.2
2018-04-19T03:07:28.312Z,994.1
2018-04-19T03:08:30.099Z,994.1
2018-04-19T03:09:31.440Z,994.2
2018-04-19T03:10:32.882Z,994.1
2018-04-19T03:11:34.294Z,994.2
2018-04-19T03:12:35.637Z,994.1
2018-04-19T03:13:37.056Z,994.1
2018-04-19T03:14:38.430Z,994.2
2018-04-19T03:15:39.861Z,994.1
2018-04-19T03:16:41.208Z,994.1
2018-04-19T03:17:42.575Z,994.1
2018-04-19T03:18:44.048Z,994.1
2018-04-19T03:19:45.388Z,993.9
2018-04-19T03:20:46.762Z,994.1
2018-04-19T03:21:48.227Z,994.1
2018-04-19T03:22:49.571Z,994.1
2018-04-19T03:23:50.963Z,994.1
2018-04-19T03:24:52.447Z,994.1
2018-04-19T03:25:53.797Z,994.1
2018-04-19T03:26:55.170Z,994.1
2018-04-19T03:27:56.569Z,994.1
2018-04-19T03:28:58.045Z,994.1
2018-04-19T03:29:59.775Z,994.1
2018-04-19T03:31:01.157Z,994.1
2018-04-19T03:32:02.552Z,994
2018-04-19T03:33:03.882Z,994.2
2018-04-19T03:34:05.262Z,994.2
2018-04-19T03:35:06.656Z,994.2
2018-04-19T03:36:08.009Z,994.2
2018-04-19T03:37:09.380Z,994.2
2018-04-19T03:38:10.748Z,994.2
2018-04-19T03:39:12.424Z,994.1
2018-04-19T03:40:13.849Z,994.1
2018-04-19T03:41:15.220Z,994.2
2018-04-19T03:42:16.563Z,994.1
2018-04-19T03:43:18.085Z,994.1
2018-04-19T03:44:19.486Z,994.1
2018-04-19T03:45:20.823Z,994.1
2018-04-19T03:46:22.197Z,994.1
2018-04-19T03:47:23.543Z,994.1
2018-04-19T03:48:24.999Z,994.1
2018-04-19T03:49:26.379Z,994
2018-04-19T03:50:28.120Z,994.1
2018-04-19T03:51:29.563Z,994.1
2018-04-19T03:52:31.296Z,994.1
2018-04-19T03:53:32.680Z,994.1
2018-04-19T03:54:34.379Z,994.1
2018-04-19T03:55:35.772Z,994.1
2018-04-19T03:56:39.919Z,994.1
2018-04-19T03:57:41.292Z,994.1
2018-04-19T03:58:44.999Z,994.1
2018-04-19T03:59:46.579Z,994.1
2018-04-19T04:00:48.595Z,994
2018-04-19T04:01:50.194Z,994.1
2018-04-19T04:02:51.836Z,994.1
2018-04-19T04:03:53.549Z,994
2018-04-19T04:04:55.127Z,994.1
2018-04-19T04:05:56.636Z,994.1
2018-04-19T04:06:57.991Z,994.1
2018-04-19T04:07:59.379Z,994.1
2018-04-19T04:09:00.856Z,994
2018-04-19T04:10:02.738Z,994.1
2018-04-19T04:11:04.121Z,994
2018-04-19T04:12:05.480Z,994
2018-04-19T04:13:07.070Z,994
2018-04-19T04:14:08.429Z,994
2018-04-19T04:15:09.844Z,994
2018-04-19T04:16:11.230Z,994
2018-04-19T04:17:12.597Z,994
2018-04-19T04:18:13.998Z,994
2018-04-19T04:19:15.400Z,994
2018-04-19T04:20:16.800Z,994
2018-04-19T04:21:20.670Z,993.8
2018-04-19T04:22:22.029Z,994
2018-04-19T04:23:23.429Z,994
2018-04-19T04:24:24.809Z,994
2018-04-19T04:25:26.241Z,994
2018-04-19T04:26:27.583Z,994
2018-04-19T04:27:28.950Z,993.9
2018-04-19T04:28:30.368Z,994
2018-04-19T04:29:31.741Z,994
2018-04-19T04:30:33.156Z,994
2018-04-19T04:31:34.528Z,994
2018-04-19T04:32:35.881Z,994
2018-04-19T04:33:37.811Z,994.1
2018-04-19T04:34:39.186Z,994
2018-04-19T04:35:40.631Z,994
2018-04-19T04:36:42.011Z,994
2018-04-19T04:37:43.372Z,994
2018-04-19T04:38:44.747Z,994
2018-04-19T04:39:46.113Z,994
2018-04-19T04:40:47.820Z,994
2018-04-19T04:41:49.211Z,994.1
2018-04-19T04:42:50.578Z,994.1
2018-04-19T04:43:51.933Z,994.1
2018-04-19T04:44:53.285Z,994
2018-04-19T04:45:54.712Z,994.1
2018-04-19T04:46:56.225Z,994.1
2018-04-19T04:47:57.876Z,994.1
2018-04-19T04:48:59.302Z,994.1
2018-04-19T04:50:00.702Z,994.1
2018-04-19T04:51:02.495Z,994
2018-04-19T04:52:18.545Z,994.2
2018-04-19T04:53:19.942Z,994.1
2018-04-19T04:54:21.343Z,994.1
2018-04-19T04:55:22.766Z,994.1
2018-04-19T04:56:24.217Z,994.1
2018-04-19T04:57:25.603Z,994.2
2018-04-19T04:58:27.000Z,994.1
2018-04-19T04:59:28.389Z,994.2
2018-04-19T05:00:29.859Z,994.2
2018-04-19T05:01:31.313Z,994.2
2018-04-19T05:02:32.790Z,994.2
2018-04-19T05:03:34.207Z,994.2
2018-04-19T05:04:35.704Z,994.2
2018-04-19T05:05:37.301Z,994.2
2018-04-19T05:06:38.797Z,994.2
2018-04-19T05:07:40.372Z,994.2
2018-04-19T05:08:41.731Z,994.2
2018-04-19T05:09:43.114Z,994.2
2018-04-19T05:10:47.603Z,994.2
2018-04-19T05:11:50.676Z,994.2
2018-04-19T05:12:52.179Z,994.2
2018-04-19T05:13:53.716Z,994.2
2018-04-19T05:14:58.448Z,994.2
2018-04-19T05:16:00.021Z,994.2
2018-04-19T05:17:01.728Z,994.2
2018-04-19T05:18:03.303Z,994.2
2018-04-19T05:19:04.754Z,994.2
2018-04-19T05:20:06.246Z,994.1
2018-04-19T05:21:08.009Z,994.3
2018-04-19T05:22:10.463Z,994.3
2018-04-19T05:23:11.849Z,994.3
2018-04-19T05:24:14.813Z,994.3
2018-04-19T05:25:16.288Z,994.3
2018-04-19T05:26:25.192Z,994.3
2018-04-19T05:27:26.581Z,994.3
2018-04-19T05:28:28.008Z,994.3
2018-04-19T05:29:29.389Z,994.3
2018-04-19T05:30:30.911Z,994.3
2018-04-19T05:31:32.312Z,994.4
2018-04-19T05:32:34.665Z,994.2
2018-04-19T05:33:37.354Z,994.4
2018-04-19T05:34:40.489Z,994.4
2018-04-19T05:35:41.866Z,994.4
2018-04-19T05:36:47.945Z,994.4
2018-04-19T05:37:49.546Z,994.2
2018-04-19T05:38:51.178Z,994.4
2018-04-19T05:39:52.605Z,994.4
2018-04-19T05:40:54.756Z,994.5
2018-04-19T05:41:56.180Z,994.4
2018-04-19T05:42:58.591Z,994.2
2018-04-19T05:44:00.080Z,994.4
2018-04-19T05:45:01.552Z,994.4
2018-04-19T05:46:03.023Z,994.4
2018-04-19T05:47:05.945Z,994.4
2018-04-19T05:48:08.206Z,994.4
2018-04-19T05:49:11.040Z,994.4
2018-04-19T05:50:12.569Z,994.5
2018-04-19T05:51:14.993Z,994.5
2018-04-19T05:52:16.512Z,994.5
2018-04-19T05:53:24.737Z,994.3
2018-04-19T05:54:26.353Z,994.5
2018-04-19T05:55:28.770Z,994.4
2018-04-19T05:56:38.903Z,994.6
2018-04-19T05:57:40.368Z,994.8
2018-04-19T05:58:41.854Z,994.9
2018-04-19T05:59:43.276Z,994.8
2018-04-19T06:00:44.657Z,995.1
2018-04-19T06:01:46.361Z,995.2
2018-04-19T06:02:47.760Z,995.2
2018-04-19T06:03:49.957Z,995
2018-04-19T06:04:51.473Z,995.3
2018-04-19T06:05:56.268Z,995.3
2018-04-19T06:06:57.736Z,995.2
2018-04-19T06:07:59.869Z,995.4
2018-04-19T06:09:01.414Z,995.4
2018-04-19T06:10:06.960Z,995.5
2018-04-19T06:11:08.384Z,995.5
2018-04-19T06:12:10.321Z,995.5
2018-04-19T06:13:11.700Z,995.4
2018-04-19T06:14:16.187Z,995.6
2018-04-19T06:15:17.740Z,995.6
2018-04-19T06:16:21.629Z,995.7
2018-04-19T06:17:23.105Z,995.7
2018-04-19T06:18:26.357Z,995.8
2018-04-19T06:19:27.975Z,995.7
2018-04-19T06:20:34.465Z,995.9
2018-04-19T06:21:35.913Z,995.9
2018-04-19T06:22:37.515Z,996
2018-04-19T06:23:38.950Z,996
2018-04-19T06:24:42.448Z,996.1
2018-04-19T06:25:43.867Z,996.2
2018-04-19T06:26:47.141Z,996.2
2018-04-19T06:27:48.566Z,996.2
2018-04-19T06:28:50.533Z,996.2
2018-04-19T06:29:52.102Z,996.2
2018-04-19T06:30:56.674Z,996.3
2018-04-19T06:31:58.091Z,996.4
2018-04-19T06:33:00.645Z,996.4
2018-04-19T06:34:02.273Z,996.4
2018-04-19T06:35:07.125Z,996.5
2018-04-19T06:36:08.540Z,996.5
2018-04-19T06:37:10.434Z,996.6
2018-04-19T06:38:11.800Z,996.6
2018-04-19T06:39:13.813Z,996.6
2018-04-19T06:40:17.198Z,996.7
2018-04-19T06:41:22.895Z,996.7
2018-04-19T06:42:24.288Z,996.7
2018-04-19T06:43:25.922Z,996.6
2018-04-19T06:44:27.699Z,996.8
2018-04-19T06:45:30.882Z,996.8
2018-04-19T06:46:32.335Z,996.9
2018-04-19T06:47:35.506Z,996.9
2018-04-19T06:48:36.915Z,996.9
2018-04-19T06:49:40.597Z,996.9
2018-04-19T06:50:42.040Z,996.9
2018-04-19T06:51:46.252Z,996.8
2018-04-19T06:52:47.643Z,997
2018-04-19T06:53:52.917Z,997
2018-04-19T06:54:54.421Z,997
2018-04-19T06:55:56.671Z,997.1
2018-04-19T06:56:58.106Z,997
2018-04-19T06:58:00.649Z,996.9
2018-04-19T06:59:02.475Z,997.1
2018-04-19T07:00:15.442Z,997
2018-04-19T07:01:25.745Z,997.1
2018-04-19T07:02:27.223Z,997.1
2018-04-19T07:03:28.620Z,997.1
2018-04-19T07:04:30.056Z,997.2
2018-04-19T07:05:31.567Z,997.1
2018-04-19T07:06:33.455Z,997.1
2018-04-19T07:07:34.900Z,997.1
2018-04-19T07:08:36.310Z,997.2
2018-04-19T07:09:37.840Z,997.2
2018-04-19T07:10:39.254Z,997.3
2018-04-19T07:11:40.857Z,997.2
2018-04-19T07:12:42.364Z,997.3
2018-04-19T07:13:43.855Z,997.3
2018-04-19T07:14:45.365Z,997.3
2018-04-19T07:15:48.619Z,997.3
2018-04-19T07:16:50.713Z,997.4
2018-04-19T07:17:52.169Z,997.4
2018-04-19T07:18:53.818Z,997.4
2018-04-19T07:19:55.276Z,997.3
2018-04-19T07:20:57.090Z,997.1
2018-04-19T07:21:58.622Z,997.4
2018-04-19T07:23:00.280Z,997.2
2018-04-19T07:24:01.889Z,997.3
2018-04-19T07:25:07.055Z,997.5
2018-04-19T07:26:08.700Z,997.3
2018-04-19T07:27:12.131Z,997.5
2018-04-19T07:28:13.756Z,997.4
2018-04-19T07:29:15.488Z,997.5
2018-04-19T07:30:16.916Z,997.5
2018-04-19T07:31:20.782Z,997.6
2018-04-19T07:32:22.313Z,997.6
2018-04-19T07:33:26.204Z,997.5
2018-04-19T07:34:27.766Z,997.6
2018-04-19T07:35:32.163Z,997.6
2018-04-19T07:36:33.589Z,997.5
2018-04-19T07:37:36.416Z,997.5
2018-04-19T07:38:37.826Z,997.5
2018-04-19T07:39:43.038Z,997.5
2018-04-19T07:40:44.450Z,997.5
2018-04-19T07:41:46.610Z,997.5
2018-04-19T07:42:48.664Z,997.5
2018-04-19T07:43:52.411Z,997.5
2018-04-19T07:44:53.846Z,997.5
2018-04-19T07:46:02.846Z,997.5
2018-04-19T07:47:04.612Z,997.4
2018-04-19T07:48:06.523Z,997.4
2018-04-19T07:49:08.102Z,997.5
2018-04-19T07:50:14.025Z,997.6
2018-04-19T07:51:23.350Z,997.6
2018-04-19T07:52:24.843Z,997.5
2018-04-19T07:53:26.552Z,997.5
2018-04-19T07:54:28.092Z,997.5
2018-04-19T07:55:29.595Z,997.3
2018-04-19T07:56:31.255Z,997.5
2018-04-19T07:57:32.721Z,997.5
2018-04-19T07:58:34.264Z,997.5
2018-04-19T07:59:35.874Z,997.5
2018-04-19T08:00:37.603Z,997.3
2018-04-19T08:01:39.167Z,997.4
2018-04-19T08:02:43.542Z,997.4
2018-04-19T08:03:45.206Z,997.4
2018-04-19T08:04:50.304Z,997.4
2018-04-19T08:05:52.230Z,997.3
2018-04-19T08:06:56.519Z,997.3
2018-04-19T08:07:58.202Z,997.4
2018-04-19T08:09:01.200Z,997.3
2018-04-19T08:10:06.391Z,997.3
2018-04-19T08:11:08.200Z,997.2
2018-04-19T08:12:09.689Z,997.3
2018-04-19T08:13:11.306Z,997.3
2018-04-19T08:14:12.912Z,997.3
2018-04-19T08:15:14.357Z,997.4
2018-04-19T08:16:15.927Z,997.4
2018-04-19T08:17:17.553Z,997.3
2018-04-19T08:18:20.502Z,997.3
2018-04-19T08:19:22.435Z,997.3
2018-04-19T08:20:24.088Z,997.3
2018-04-19T08:21:26.533Z,997.2
2018-04-19T08:22:28.026Z,997.1
2018-04-19T08:23:31.931Z,997.1
2018-04-19T08:24:36.326Z,997.1
2018-04-19T08:25:38.798Z,997
2018-04-19T08:26:40.204Z,996.8
2018-04-19T08:27:41.919Z,996.9
2018-04-19T08:28:43.348Z,996.9
2018-04-19T08:29:46.273Z,996.8
2018-04-19T08:30:47.703Z,997
2018-04-19T08:31:49.320Z,997
2018-04-19T08:32:50.987Z,996.8
2018-04-19T08:33:54.540Z,996.9
2018-04-19T08:34:55.985Z,996.8
2018-04-19T08:36:01.541Z,996.9
2018-04-19T08:37:03.738Z,996.8
2018-04-19T08:38:07.510Z,997
2018-04-19T08:39:09.093Z,996.8
2018-04-19T08:40:12.181Z,996.8
2018-04-19T08:41:14.046Z,996.7
2018-04-19T08:42:15.744Z,996.8
2018-04-19T08:43:17.369Z,996.8
2018-04-19T08:44:19.023Z,996.7
2018-04-19T08:45:20.866Z,996.8
2018-04-19T08:46:22.446Z,996.7
2018-04-19T08:47:24.044Z,996.9
2018-04-19T08:48:27.953Z,996.8
2018-04-19T08:49:29.541Z,996.8
2018-04-19T08:50:34.493Z,996.7
2018-04-19T08:51:35.987Z,996.7
2018-04-19T08:52:39.599Z,996.4
2018-04-19T08:53:41.254Z,996.6
2018-04-19T08:54:43.087Z,996.7
2018-04-19T08:55:54.523Z,996.7
2018-04-19T08:56:56.064Z,996.7
2018-04-19T08:57:57.913Z,996.6
2018-04-19T08:58:59.565Z,996.6
2018-04-19T09:00:01.450Z,996.6
2018-04-19T09:01:03.268Z,996.6
2018-04-19T09:02:13.290Z,996.6
2018-04-19T09:03:15.033Z,996.4
2018-04-19T09:04:16.801Z,996.3
2018-04-19T09:05:18.597Z,996.5
2018-04-19T09:06:26.640Z,996.6
2018-04-19T09:07:29.628Z,996.4
2018-04-19T09:08:40.129Z,996.4
2018-04-19T09:09:47.663Z,996.4
2018-04-19T09:11:00.729Z,996.4
2018-04-19T09:13:27.934Z,996.3
2018-04-19T09:14:29.604Z,996.2
2018-04-19T09:15:39.630Z,996.1
2018-04-19T09:16:41.237Z,996.1
2018-04-19T09:17:43.017Z,996.1
2018-04-19T09:18:44.613Z,996.2
2018-04-19T09:19:46.082Z,996.2
2018-04-19T09:20:49.621Z,996.2
2018-04-19T09:21:51.457Z,996.3
2018-04-19T09:22:57.325Z,996.4
2018-04-19T09:23:59.245Z,996.3
2018-04-19T09:25:04.998Z,996.4
2018-04-19T09:26:10.175Z,996.2
2018-04-19T09:27:11.760Z,996.4
2018-04-19T09:28:14.839Z,996.3
2018-04-19T09:29:16.409Z,996.2
2018-04-19T09:30:17.969Z,996.4
2018-04-19T09:31:19.580Z,996.3
2018-04-19T09:32:21.448Z,996.3
2018-04-19T09:33:22.982Z,996.2
2018-04-19T09:34:26.800Z,996
2018-04-19T09:35:36.601Z,996.1
2018-04-19T09:36:39.190Z,996.1
2018-04-19T09:37:46.093Z,996.1
2018-04-19T09:38:47.638Z,996.1
2018-04-19T09:39:50.740Z,996
2018-04-19T09:40:53.558Z,996.1
2018-04-19T09:42:00.703Z,996.1
2018-04-19T09:43:02.563Z,995.8
2018-04-19T09:44:06.573Z,995.9
2018-04-19T09:45:15.506Z,995.9
2018-04-19T09:46:17.043Z,995.8
2018-04-19T09:47:18.580Z,996
2018-04-19T09:48:21.132Z,995.9
2018-04-19T09:49:22.723Z,995.9
2018-04-19T09:50:28.417Z,995.9
2018-04-19T09:51:30.086Z,996
2018-04-19T09:52:42.565Z,995.8
2018-04-19T09:53:43.957Z,995.8
2018-04-19T09:54:45.838Z,995.8
2018-04-19T09:55:47.380Z,995.8
2018-04-19T09:56:48.802Z,995.7
2018-04-19T09:57:50.558Z,995.7
2018-04-19T09:58:52.159Z,995.7
2018-04-19T09:59:53.837Z,995.8
2018-04-19T10:01:00.017Z,995.8
2018-04-19T10:02:01.864Z,995.8
2018-04-19T10:03:03.507Z,995.7
2018-04-19T10:04:05.040Z,995.7
2018-04-19T10:05:11.265Z,995.7
2018-04-19T10:06:12.943Z,995.6
2018-04-19T10:07:14.399Z,995.7
2018-04-19T10:08:15.839Z,995.7
2018-04-19T10:09:17.471Z,995.6
2018-04-19T10:10:23.150Z,995.6
2018-04-19T10:11:24.615Z,995.6
2018-04-19T10:12:26.596Z,995.5
2018-04-19T10:13:28.033Z,995.5
2018-04-19T10:14:32.456Z,995.5
2018-04-19T10:15:34.012Z,995.4
2018-04-19T10:16:35.595Z,995.4
2018-04-19T10:17:37.302Z,995.4
2018-04-19T10:18:40.743Z,995.3
2018-04-19T10:19:42.408Z,995.5
2018-04-19T10:20:44.096Z,995.6
2018-04-19T10:21:46.858Z,995.4
2018-04-19T10:22:48.368Z,995.3
2018-04-19T10:23:49.825Z,995.2
2018-04-19T10:24:51.508Z,995.2
2018-04-19T10:25:53.078Z,995.2
2018-04-19T10:26:54.572Z,995
2018-04-19T10:27:56.425Z,995.1
2018-04-19T10:29:00.487Z,995.2
2018-04-19T10:30:02.809Z,995.2
2018-04-19T10:31:04.771Z,995
2018-04-19T10:32:06.237Z,995
2018-04-19T10:33:11.440Z,995
2018-04-19T10:34:20.593Z,994.8
2018-04-19T10:35:22.271Z,994.8
2018-04-19T10:36:24.468Z,995
2018-04-19T10:37:30.411Z,995
2018-04-19T10:38:32.125Z,995
2018-04-19T10:39:38.944Z,994.9
2018-04-19T10:40:45.112Z,994.8
2018-04-19T10:41:47.666Z,994.7
2018-04-19T10:42:49.264Z,995
2018-04-19T10:43:50.994Z,995
2018-04-19T10:44:53.056Z,994.8
2018-04-19T10:45:55.230Z,994.8
2018-04-19T10:46:57.080Z,994.7
2018-04-19T10:48:09.068Z,994.9
2018-04-19T10:49:18.689Z,994.7
2018-04-19T10:50:20.289Z,994.9
2018-04-19T10:51:22.615Z,994.8
2018-04-19T10:52:26.194Z,994.9
2018-04-19T10:53:27.779Z,994.8
2018-04-19T10:54:29.189Z,994.8
2018-04-19T10:55:31.788Z,994.7
2018-04-19T10:56:38.472Z,994.8
2018-04-19T10:57:43.930Z,994.9
2018-04-19T10:58:48.629Z,994.7
2018-04-19T10:59:50.095Z,994.6
2018-04-19T11:00:51.585Z,994.6
2018-04-19T11:01:52.945Z,994.7
2018-04-19T11:02:54.340Z,994.6
2018-04-19T11:04:14.580Z,994.7
2018-04-19T11:05:15.931Z,994.6
2018-04-19T11:06:24.790Z,994.4
2018-04-19T11:07:26.872Z,994.5
2018-04-19T11:08:28.517Z,994.5
2018-04-19T11:09:49.461Z,994.5
2018-04-19T11:10:51.199Z,994.5
2018-04-19T11:11:52.839Z,994.5
2018-04-19T11:12:56.007Z,994.4
2018-04-19T11:13:57.531Z,994.5
2018-04-19T11:14:59.032Z,994.5
2018-04-19T11:16:00.595Z,994.4
2018-04-19T11:17:03.740Z,994.5
2018-04-19T11:18:19.859Z,994.2
2018-04-19T11:19:33.719Z,994.4
2018-04-19T11:20:36.111Z,994.3
2018-04-19T11:21:37.593Z,994.4
2018-04-19T11:22:39.289Z,994.3
2018-04-19T11:23:49.347Z,994.3
2018-04-19T11:26:20.793Z,994.3
2018-04-19T11:27:28.066Z,994.3
2018-04-19T11:28:30.820Z,994.3
2018-04-19T11:29:34.203Z,994.3
2018-04-19T11:30:40.347Z,994.2
2018-04-19T11:31:42.736Z,994.2
2018-04-19T11:32:45.790Z,994.2
2018-04-19T11:33:47.375Z,994.1
2018-04-19T11:34:48.954Z,994.2
2018-04-19T11:35:50.896Z,994.2
2018-04-19T11:36:52.574Z,994.2
2018-04-19T11:37:57.087Z,994.2
2018-04-19T11:38:58.499Z,994.1
2018-04-19T11:40:00.093Z,994
2018-04-19T11:41:01.622Z,994.1
2018-04-19T11:42:03.225Z,994.2
2018-04-19T11:43:07.467Z,994.2
2018-04-19T11:44:08.908Z,994.1
2018-04-19T11:45:10.310Z,994.1
2018-04-19T11:46:11.784Z,994.1
2018-04-19T11:47:15.680Z,994
2018-04-19T11:48:18.513Z,993.9
2018-04-19T11:49:24.879Z,994.1
2018-04-19T11:50:34.374Z,994.1
2018-04-19T11:51:36.322Z,994.1
2018-04-19T11:52:40.494Z,994.1
2018-04-19T11:53:50.571Z,994
2018-04-19T11:54:52.014Z,994
2018-04-19T11:55:55.179Z,994
2018-04-19T11:56:56.927Z,993.9
2018-04-19T11:58:05.073Z,994.1
2018-04-19T11:59:07.292Z,994
2018-04-19T12:00:09.986Z,994.2
2018-04-19T12:01:11.984Z,994.2
2018-04-19T12:02:17.872Z,994.2
2018-04-19T12:03:19.354Z,994.2
2018-04-19T12:04:20.734Z,994.1
2018-04-19T12:05:23.570Z,994.2
2018-04-19T12:06:24.920Z,994
2018-04-19T12:07:26.674Z,993.9
2018-04-19T12:08:28.165Z,994.1
2018-04-19T12:09:30.078Z,994.1
2018-04-19T12:10:31.508Z,994.1
2018-04-19T12:11:33.164Z,994
2018-04-19T12:12:36.556Z,993.9
2018-04-19T12:13:40.677Z,994
2018-04-19T12:14:42.127Z,994
2018-04-19T12:15:43.505Z,994
2018-04-19T12:16:45.384Z,994
2018-04-19T12:17:46.831Z,993.9
2018-04-19T12:18:50.441Z,993.8
2018-04-19T12:19:51.868Z,993.9
2018-04-19T12:20:55.135Z,994
2018-04-19T12:21:56.826Z,993.6
2018-04-19T12:22:59.474Z,993.7
2018-04-19T12:24:01.004Z,994
2018-04-19T12:25:05.780Z,993.9
2018-04-19T12:26:07.231Z,993.7
2018-04-19T12:27:11.022Z,993.9
2018-04-19T12:28:14.740Z,994
2018-04-19T12:29:16.415Z,993.9
2018-04-19T12:30:22.061Z,993.9
2018-04-19T12:31:23.584Z,993.9
2018-04-19T12:32:27.189Z,993.8
2018-04-19T12:33:38.239Z,993.9
2018-04-19T12:34:58.833Z,993.7
2018-04-19T12:36:11.839Z,993.9
2018-04-19T12:37:33.654Z,993.8
2018-04-19T12:38:45.984Z,993.7
2018-04-19T12:39:53.747Z,993.8
2018-04-19T12:40:58.282Z,993.7
2018-04-19T12:42:00.906Z,993.6
2018-04-19T12:43:23.986Z,993.6
2018-04-19T12:44:41.462Z,993.6
2018-04-19T12:48:04.559Z,993.7
2018-04-19T13:04:17.677Z,993.6
2018-04-19T13:05:19.082Z,993.8
2018-04-19T13:06:21.143Z,993.6
2018-04-19T13:07:22.682Z,993.6
2018-04-19T13:08:55.899Z,993.7
2018-04-19T13:11:46.869Z,993.5
2018-04-19T13:14:45.584Z,993.5
2018-04-19T13:16:03.768Z,993.6
2018-04-19T13:17:19.719Z,993.5
2018-04-19T13:18:21.124Z,993.5
2018-04-19T13:19:22.623Z,993.5
2018-04-19T13:20:23.975Z,993.4
2018-04-19T13:21:25.643Z,993.4
2018-04-19T13:22:27.040Z,993.3
2018-04-19T13:23:31.528Z,993.4
2018-04-19T13:24:33.002Z,993.2
2018-04-19T13:25:34.679Z,993.2
2018-04-19T13:26:39.714Z,993.2
2018-04-19T13:28:13.676Z,993.2
2018-04-19T13:29:15.473Z,993.2
2018-04-19T13:32:03.748Z,993.1
2018-04-19T13:33:05.366Z,993.1
2018-04-19T13:34:07.528Z,993.1
2018-04-19T13:35:09.107Z,993.1
2018-04-19T13:36:10.499Z,993.1
2018-04-19T13:37:13.370Z,993.2
2018-04-19T13:38:14.847Z,993.2
2018-04-19T13:39:18.525Z,993.2
2018-04-19T13:40:20.015Z,993.2
2018-04-19T13:41:26.637Z,993.2
2018-04-19T13:42:29.361Z,993.1
2018-04-19T13:43:30.740Z,993.2
2018-04-19T13:44:32.131Z,993.2
2018-04-19T13:45:33.675Z,993.2
2018-04-19T13:46:35.454Z,992.9
2018-04-19T13:47:38.926Z,993.2
2018-04-19T13:48:40.568Z,993
2018-04-19T13:49:42.472Z,993.1
2018-04-19T13:50:43.913Z,993
2018-04-19T13:51:45.371Z,993.2
2018-04-19T13:52:46.972Z,992.8
2018-04-19T13:53:48.420Z,993.1
2018-04-19T13:54:49.796Z,993.1
2018-04-19T13:55:53.093Z,993.2
2018-04-19T13:56:54.624Z,993
2018-04-19T13:57:56.109Z,993
2018-04-19T13:58:57.527Z,993.1
2018-04-19T13:59:58.933Z,993